Avon, MN

1:39 PM CST on December 09, 2016 (GMT -0600)
Stratford Addition | | Change Station

Elev 1125 ft 45.60 °N, 94.47 °W | Updated 2 seconds ago

Overcast
Overcast
13.3 °F
Feels Like 6 °F
N
4.7
Wind Variable Wind from SW

Today
High -- | Low -- °F
--% Chance of Precip.
Yesterday
High -- | Low -- °F
Precip. -- in
Pressure 30.60 in
Visibility 5.0 miles
Clouds Overcast 2200 ft
Windchill 6 °F
Dew Point 7 °F
Humidity 75%
Rainfall 0.00 in
Snow Depth Not available.
7:46 AM 4:33 PM
Waxing Gibbous, 76% visible
METAR KSTC 091853Z 29007KT 5SM -SN OVC022 M10/M14 A3050 RMK AO2 SNB42 SLP361 P0000 T11001139
Pressure 30.60 in
Visibility 5.0 miles
Clouds Overcast 2200 ft
Windchill 6 °F
Dew Point 7 °F
Humidity 75%
Rainfall 0.00 in
Snow Depth Not available.
7:46 AM 4:33 PM
Waxing Gibbous, 76% visible
METAR KSTC 091853Z 29007KT 5SM -SN OVC022 M10/M14 A3050 RMK AO2 SNB42 SLP361 P0000 T11001139

10-Day Weather Forecast

Almanac

Astronomy

Dec. 09, 2016 Rise Set
Actual Time
Civil Twilight
Nautical Twilight
Astronomical Twilight
Moon
Length of Visible Light
Length of Day
Tomorrow will be .
, % of the Moon is Illuminated

Today's Extremes

State Highs State Lows

Community

WunderPhotos

Upload Photos

1,956,499 photos uploaded!

WunderBlog® & News

Nearby

Air Quality

  Air Quality AQ Index Pollutant
Not available.

Snow Depth

Station Depth Elevation

Earthquake Activity

City Distance Mag. Time & Date
Minimum magnitude displayed is 2.5.

Coastal Water Temperatures

Place Temperature

Stations

Nearby Weather Stations

Station Location Temp. Windchill Dew Point Humidity Wind Precip. Elev Updated Type
                   

Watches & Warnings

There are currently no watches in effect.